• Join FlightAware (Why Join?)
  • Login
  • US Flag 
11:37AM EDT


 

Airport Tracker/Info


-or-


 

Live Flight TrackerFlight Track Log ✈ CNS13 ✈ 12-Jul-2013 ✈ KBLM - KILG

Flight Track Log - Related Links

Times and Time Zones

All times are in EDT time to prevent confusion due to time zone crossing. See the CNS13 flight status page for this flight to view local times or setup timezone preferences in your user account.

Time Position Orientation Groundspeed Altitude Reporting Facility
EDT Latitude Longitude Course Direction KTS MPH feet Rate Location/Type
11:15AM 39.9283 -74.3254 212° Southwest  Level FlightAware Approximate
11:16AM 39.8857 -74.3603 212° Southwest  Level FlightAware Approximate
11:17AM 39.8430 -74.3952 212° Southwest  Level FlightAware Approximate
11:18AM 39.8062 -74.4377 237° Southwest  Level FlightAware Approximate
11:19AM 39.7788 -74.4927 237° Southwest  Level FlightAware Approximate
11:19AM 39.7500 -74.5500 237° Southwest 238 274 4,000  Level Philadelphia TRACON
11:20AM 39.7513 -74.5476 237° Southwest  Level FlightAware Approximate
11:20AM 39.7167 -74.6167 237° Southwest 239 275 4,000  Level Philadelphia TRACON
11:21AM 39.7239 -74.6024 237° Southwest  Level FlightAware Approximate
11:21AM 39.6833 -74.6833 237° Southwest 238 274 4,000  Level Philadelphia TRACON
11:22AM 39.6959 -74.6569 232° Southwest  Level FlightAware Approximate
11:22AM 39.6500 -74.7500 237° Southwest 239 275 3,200  Level Philadelphia TRACON
11:23AM 39.6649 -74.7085 232° Southwest  Level FlightAware Approximate
11:23AM 39.6167 -74.8167 237° Southwest 230 265 3,100  Level Philadelphia TRACON
11:24AM 39.6358 -74.7617 237° Southwest  Level FlightAware Approximate
11:24AM 39.5833 -74.8833 237° Southwest 231 266 3,100  Level Philadelphia TRACON
11:25AM 39.5500 -74.9667 243° Southwest 237 273 3,100  Level Philadelphia TRACON
11:26AM 39.5333 -75.0500 255° West 238 274 3,100  Level Philadelphia TRACON
11:27AM 39.5167 -75.1333 255° West 238 274 3,100  Level Philadelphia TRACON
11:28AM 39.5167 -75.2000 270° West 236 272 3,100  Level Philadelphia TRACON
11:29AM 39.5000 -75.3000 258° West 228 262 3,100  Level Philadelphia TRACON
11:30AM 39.5000 -75.3667 270° West 210 242 3,100  Level Philadelphia TRACON
11:31AM 39.5000 -75.4333 270° West 201 231 3,100  Level Philadelphia TRACON
11:32AM 39.5000 -75.5167 270° West 196 226 3,100 -120 Level Philadelphia TRACON
11:33AM 39.5000 -75.5833 270° West 195 224 2,900 -540 Descending Philadelphia TRACON
11:34AM 39.5333 -75.6167 322° Northwest 193 222 2,100 -480 Descending Philadelphia TRACON
11:35AM 39.5833 -75.6167 360° North 142 163 2,000 -480 Descending Philadelphia TRACON
11:36AM 39.6167 -75.6167 360° North 114 131 1,200 -660 Descending Philadelphia TRACON
11:37AM 39.6500 -75.6000 21° North 95 109 700 -480 Descending Philadelphia TRACON